Time;durP1;ratioP1;P1;durP2;ratioP2;P2;SDS_P1;SDS_P2;PMS_P1;PMS_P2;Temp;Humidity;BMP_temperature;BMP_pressure;BME280_temperature;BME280_humidity;BME280_pressure;Samples;Min_cycle;Max_cycle;Signal;HPM_P1;HPM_P2
2023/03/05 00:02:24;;;;;;;;;;;;;;;16.07;46.23;100371.31;4999873;28;1103;-54
2023/03/05 00:04:49;;;;;;;;;;;;;;;17.66;45.97;100368.59;4999379;28;1914;-55
2023/03/05 00:07:15;;;;;;;;;;;;;;;16.66;47.48;100362.50;4999621;28;1096;-50
2023/03/05 00:09:41;;;;;;;;;;;;;;;16.36;47.11;100367.91;4999491;28;1103;-51
2023/03/05 00:12:06;;;;;;;;;;;;;;;16.02;46.55;100363.09;4999663;28;1061;-52
2023/03/05 00:14:32;;;;;;;;;;;;;;;16.00;45.74;100362.56;4999559;28;1148;-50
2023/03/05 00:16:57;;;;;;;;;;;;;;;16.89;46.42;100361.03;4999211;28;1184;-54
2023/03/05 00:19:23;;;;;;;;;;;;;;;16.20;47.02;100363.56;4999377;28;1099;-54
2023/03/05 00:21:49;;;;;;;;;;;;;;;16.76;47.02;100363.28;4998736;28;1037;-52
2023/03/05 00:24:16;;;;;;;;;;;;;;;16.88;47.16;100356.59;4998991;28;1973;-55
2023/03/05 00:26:41;;;;;;;;;;;;;;;16.25;47.38;100347.91;4999631;28;1037;-53
2023/03/05 00:29:07;;;;;;;;;;;;;;;16.67;47.33;100344.94;4998931;28;1513;-54
2023/03/05 00:31:33;;;;;;;;;;;;;;;16.81;47.32;100336.91;4999155;28;1040;-54
2023/03/05 00:33:59;;;;;;;;;;;;;;;16.23;47.38;100332.84;5013744;28;1198;-54
2023/03/05 00:36:25;;;;;;;;;;;;;;;17.03;46.95;100340.03;4998675;28;1088;-54
2023/03/05 00:38:50;;;;;;;;;;;;;;;16.66;47.17;100335.91;4999214;28;1136;-52
2023/03/05 00:41:16;;;;;;;;;;;;;;;16.23;46.84;100332.84;5014233;28;1551;-53
2023/03/05 00:43:42;;;;;;;;;;;;;;;17.05;46.56;100337.81;4998918;28;1906;-54
2023/03/05 00:46:07;;;;;;;;;;;;;;;16.29;47.18;100336.41;4998743;28;1064;-54
2023/03/05 00:48:33;;;;;;;;;;;;;;;15.98;47.13;100331.06;4998916;28;1064;-54
2023/03/05 00:50:58;;;;;;;;;;;;;;;17.07;46.54;100330.13;4998840;28;1080;-54
2023/03/05 00:53:24;;;;;;;;;;;;;;;16.28;47.31;100335.56;4998797;28;1084;-54
2023/03/05 00:55:49;;;;;;;;;;;;;;;15.97;46.79;100329.41;4998824;28;1053;-54
2023/03/05 00:58:15;;;;;;;;;;;;;;;16.52;46.79;100329.38;4998261;28;1116;-54
2023/03/05 01:00:41;;;;;;;;;;;;;;;16.62;46.89;100332.09;5014240;28;1146;-54
2023/03/05 01:03:06;;;;;;;;;;;;;;;16.12;47.01;100333.97;5013483;28;1961;-55
2023/03/05 01:05:32;;;;;;;;;;;;;;;16.54;47.15;100328.00;5013879;28;1536;-55
2023/03/05 01:07:57;;;;;;;;;;;;;;;16.70;46.91;100323.22;5013958;28;1267;-54
2023/03/05 01:10:26;;;;;;;;;;;;;;;16.14;47.06;100329.06;4998396;28;1096;-54
2023/03/05 01:12:52;;;;;;;;;;;;;;;16.58;47.34;100331.81;4997838;28;1060;-49
2023/03/05 01:15:18;;;;;;;;;;;;;;;16.53;47.14;100326.34;4998520;28;1206;-50
2023/03/05 01:17:44;;;;;;;;;;;;;;;16.13;46.77;100316.44;4998157;28;1064;-53
2023/03/05 01:20:11;;;;;;;;;;;;;;;15.96;46.12;100320.34;4998237;28;1107;-51
2023/03/05 01:22:37;;;;;;;;;;;;;;;16.23;46.92;100324.63;4998022;28;1192;-51
2023/03/05 01:25:03;;;;;;;;;;;;;;;16.58;46.79;100331.00;5013658;28;1902;-53
2023/03/05 01:27:28;;;;;;;;;;;;;;;16.44;47.55;100333.56;4997763;28;1199;-48
2023/03/05 01:29:54;;;;;;;;;;;;;;;18.19;44.53;100342.16;4998329;28;1124;-51
2023/03/05 01:32:19;;;;;;;;;;;;;;;16.77;47.27;100337.47;4998257;28;1145;-51
2023/03/05 01:34:45;;;;;;;;;;;;;;;16.30;47.04;100332.53;4997309;28;1060;-49
2023/03/05 01:37:11;;;;;;;;;;;;;;;16.15;46.32;100326.03;4998177;28;1140;-50
2023/03/05 01:39:36;;;;;;;;;;;;;;;15.91;45.88;100332.16;4997897;28;1200;-49
2023/03/05 01:42:02;;;;;;;;;;;;;;;16.54;46.99;100335.44;5013337;28;1165;-50
2023/03/05 01:44:28;;;;;;;;;;;;;;;16.11;46.99;100340.59;4997828;28;1914;-48
2023/03/05 01:46:54;;;;;;;;;;;;;;;16.03;47.24;100342.81;4980193;28;1095;-51
2023/03/05 01:49:20;;;;;;;;;;;;;;;16.86;46.60;100350.59;4997401;28;1005;-52
2023/03/05 01:51:57;;;;;;;;;;;;;;;16.12;47.47;100344.94;5013033;28;1139;-50
2023/03/05 01:54:24;;;;;;;;;;;;;;;15.89;46.42;100349.97;5012619;28;1124;-51
2023/03/05 01:56:49;;;;;;;;;;;;;;;16.58;46.95;100366.69;4997625;28;994;-51
2023/03/05 01:59:15;;;;;;;;;;;;;;;16.02;46.87;100360.38;4995760;28;1258;-54
2023/03/05 02:01:42;;;;;;;;;;;;;;;17.29;45.97;100359.03;4997488;28;1121;-55
2023/03/05 02:04:08;;;;;;;;;;;;;;;16.49;46.97;100354.66;4996424;28;1976;-55
2023/03/05 02:06:34;;;;;;;;;;;;;;;16.83;46.98;100362.13;4997141;28;1051;-53
2023/03/05 02:08:59;;;;;;;;;;;;;;;17.43;46.09;100354.53;5012798;28;1232;-54
2023/03/05 02:11:25;;;;;;;;;;;;;;;16.56;46.93;100357.91;5012509;28;1133;-54
2023/03/05 02:13:51;;;;;;;;;;;;;;;16.14;47.03;100346.31;5012613;28;1136;-52
2023/03/05 02:16:17;;;;;;;;;;;;;;;15.90;46.36;100351.63;4997490;28;1072;-55
2023/03/05 02:18:42;;;;;;;;;;;;;;;17.14;46.64;100361.91;4996919;28;1037;-54
2023/03/05 02:21:08;;;;;;;;;;;;;;;16.31;47.20;100356.13;4997016;28;1033;-55
2023/03/05 02:23:37;;;;;;;;;;;;;;;16.10;46.43;100360.88;4996996;28;1985;-55
2023/03/05 02:26:09;;;;;;;;;;;;;;;17.16;46.37;100362.47;4996967;28;1148;-53
2023/03/05 02:28:45;;;;;;;;;;;;;;;16.25;47.19;100352.59;5012516;28;1650;-54
2023/03/05 02:31:13;;;;;;;;;;;;;;;16.18;46.96;100357.56;4983930;28;1133;-49
2023/03/05 02:33:39;;;;;;;;;;;;;;;16.85;46.69;100354.44;4996634;28;1128;-53
2023/03/05 02:36:05;;;;;;;;;;;;;;;16.14;47.18;100359.22;5012046;28;1210;-55
2023/03/05 02:38:31;;;;;;;;;;;;;;;15.92;46.85;100354.91;5012359;28;1071;-50
2023/03/05 02:40:56;;;;;;;;;;;;;;;16.64;46.52;100360.06;4996638;28;1147;-48
2023/03/05 02:43:22;;;;;;;;;;;;;;;16.35;47.17;100355.25;5012133;28;1902;-53
2023/03/05 02:45:48;;;;;;;;;;;;;;;15.96;46.86;100360.66;5012526;28;1250;-52
2023/03/05 02:48:14;;;;;;;;;;;;;;;16.88;46.46;100353.84;4996107;28;902;-51
2023/03/05 02:50:40;;;;;;;;;;;;;;;16.53;47.10;100351.06;4996800;28;1064;-53
2023/03/05 02:53:06;;;;;;;;;;;;;;;16.04;46.83;100358.16;5012249;28;1175;-51
2023/03/05 02:55:31;;;;;;;;;;;;;;;17.06;46.23;100355.94;5011918;28;1250;-53
2023/03/05 02:57:58;;;;;;;;;;;;;;;16.23;46.99;100363.84;5012111;28;1289;-53
2023/03/05 03:00:25;;;;;;;;;;;;;;;16.03;46.31;100362.00;4996871;28;1014;-51
2023/03/05 03:02:50;;;;;;;;;;;;;;;17.36;45.58;100373.28;5012202;28;1136;-52
2023/03/05 03:05:16;;;;;;;;;;;;;;;16.29;47.28;100363.84;4996435;28;1973;-53
2023/03/05 03:07:42;;;;;;;;;;;;;;;17.03;46.46;100369.44;4997255;28;1191;-51
2023/03/05 03:10:07;;;;;;;;;;;;;;;16.77;46.90;100367.66;4997064;28;1048;-52
2023/03/05 03:12:42;;;;;;;;;;;;;;;16.25;47.14;100360.81;4999831;28;870;-49
2023/03/05 03:15:08;;;;;;;;;;;;;;;17.44;45.74;100366.34;5000603;28;1208;-52
2023/03/05 03:17:34;;;;;;;;;;;;;;;16.32;47.38;100369.56;5000888;28;1140;-51
2023/03/05 03:20:01;;;;;;;;;;;;;;;16.73;47.08;100374.84;5000505;28;1171;-49
2023/03/05 03:22:27;;;;;;;;;;;;;;;16.87;47.06;100374.19;5000621;28;1084;-52
2023/03/05 03:24:53;;;;;;;;;;;;;;;16.34;46.82;100367.38;4999950;28;1905;-51
2023/03/05 03:27:18;;;;;;;;;;;;;;;18.00;44.98;100367.69;5000542;28;1131;-49
2023/03/05 03:29:44;;;;;;;;;;;;;;;16.74;47.17;100370.97;5000789;28;1010;-52
2023/03/05 03:32:09;;;;;;;;;;;;;;;16.36;46.70;100376.13;4999946;28;1017;-53
2023/03/05 03:34:35;;;;;;;;;;;;;;;16.91;47.11;100372.53;4999969;28;1108;-53
2023/03/05 03:37:01;;;;;;;;;;;;;;;16.39;47.01;100372.81;4999968;28;966;-52
2023/03/05 03:39:26;;;;;;;;;;;;;;;16.15;46.61;100374.59;4999970;28;1204;-53
2023/03/05 03:41:52;;;;;;;;;;;;;;;16.87;46.37;100365.94;4999991;28;1061;-53
2023/03/05 03:44:18;;;;;;;;;;;;;;;16.95;46.52;100370.88;4999978;28;1967;-53
2023/03/05 03:46:45;;;;;;;;;;;;;;;16.29;47.05;100366.56;4999800;28;1087;-51
2023/03/05 03:49:14;;;;;;;;;;;;;;;16.04;46.39;100362.81;4999565;28;939;-53
2023/03/05 03:51:39;;;;;;;;;;;;;;;16.51;46.80;100368.91;4999852;28;1211;-50
2023/03/05 03:54:05;;;;;;;;;;;;;;;16.56;47.05;100371.63;4999736;28;1040;-54
2023/03/05 03:56:31;;;;;;;;;;;;;;;16.19;46.83;100371.00;5000006;28;997;-52
2023/03/05 03:58:56;;;;;;;;;;;;;;;16.25;47.06;100375.34;4999720;28;1049;-54
2023/03/05 04:01:22;;;;;;;;;;;;;;;16.84;46.55;100369.28;4999783;28;1089;-52
2023/03/05 04:03:47;;;;;;;;;;;;;;;16.20;47.14;100371.81;4999945;28;1902;-51
2023/03/05 04:06:13;;;;;;;;;;;;;;;17.65;45.53;100372.44;4999558;28;1460;-54
2023/03/05 04:08:38;;;;;;;;;;;;;;;16.68;47.05;100369.38;5000161;28;1180;-54
2023/03/05 04:11:04;;;;;;;;;;;;;;;16.28;46.68;100368.47;4999229;28;1029;-54
2023/03/05 04:13:30;;;;;;;;;;;;;;;15.98;46.32;100373.00;4999937;28;1196;-50
2023/03/05 04:15:55;;;;;;;;;;;;;;;16.50;46.62;100372.78;4998805;28;1025;-52
2023/03/05 04:18:21;;;;;;;;;;;;;;;16.26;47.06;100365.22;4999416;28;1215;-52
2023/03/05 04:20:46;;;;;;;;;;;;;;;16.03;46.48;100361.19;4999053;28;1140;-53
2023/03/05 04:23:12;;;;;;;;;;;;;;;16.67;46.32;100358.69;4998580;28;1963;-51
2023/03/05 04:25:38;;;;;;;;;;;;;;;16.36;46.86;100354.19;4999301;28;1115;-49
2023/03/05 04:28:03;;;;;;;;;;;;;;;15.97;46.73;100357.63;4998905;28;1091;-50
2023/03/05 04:30:30;;;;;;;;;;;;;;;16.32;46.95;100357.78;4999151;28;1115;-56
2023/03/05 04:32:55;;;;;;;;;;;;;;;16.42;46.73;100354.97;4999141;28;1081;-58
2023/03/05 04:35:21;;;;;;;;;;;;;;;15.93;46.97;100361.22;4998979;28;1203;-60
2023/03/05 04:37:47;;;;;;;;;;;;;;;17.12;45.71;100358.66;4998912;28;1064;-55
2023/03/05 04:40:12;;;;;;;;;;;;;;;16.23;46.98;100366.59;4999250;28;1180;-55
2023/03/05 04:42:38;;;;;;;;;;;;;;;17.29;45.75;100364.53;4998885;28;1132;-55
2023/03/05 04:45:04;;;;;;;;;;;;;;;17.00;46.44;100368.09;4998529;28;1910;-56
2023/03/05 04:47:29;;;;;;;;;;;;;;;16.26;47.18;100365.22;4998654;28;1222;-57
2023/03/05 04:49:55;;;;;;;;;;;;;;;16.11;47.11;100366.09;4999503;28;1080;-58
2023/03/05 04:52:20;;;;;;;;;;;;;;;16.87;46.70;100368.69;4998329;28;1091;-58
2023/03/05 04:54:46;;;;;;;;;;;;;;;16.16;47.25;100371.56;4998931;28;1100;-57
2023/03/05 04:57:12;;;;;;;;;;;;;;;16.64;47.27;100382.03;4998632;28;1171;-57
2023/03/05 04:59:37;;;;;;;;;;;;;;;16.65;46.80;100371.84;4998685;28;1208;-58
2023/03/05 05:02:03;;;;;;;;;;;;;;;16.15;46.76;100364.41;4997578;28;1148;-57
2023/03/05 05:04:29;;;;;;;;;;;;;;;15.94;46.17;100368.34;4997672;28;1985;-57
2023/03/05 05:06:57;;;;;;;;;;;;;;;15.86;45.94;100364.25;4998769;28;1597;-57
2023/03/05 05:09:23;;;;;;;;;;;;;;;16.75;46.23;100361.63;4998818;28;1032;-53
2023/03/05 05:11:49;;;;;;;;;;;;;;;15.99;47.14;100362.84;4998286;28;1153;-49
2023/03/05 05:14:14;;;;;;;;;;;;;;;15.77;46.53;100358.50;4998434;28;1029;-53
2023/03/05 05:16:40;;;;;;;;;;;;;;;17.13;45.74;100366.59;4998368;28;1111;-53
2023/03/05 05:19:07;;;;;;;;;;;;;;;16.07;47.32;100370.50;4998060;28;1144;-54
2023/03/05 05:21:32;;;;;;;;;;;;;;;16.20;46.85;100369.06;4998252;28;1518;-52
2023/03/05 05:23:58;;;;;;;;;;;;;;;17.20;45.87;100360.78;4997203;28;1906;-53
2023/03/05 05:26:23;;;;;;;;;;;;;;;16.18;47.32;100363.84;4998188;28;1036;-50
2023/03/05 05:28:49;;;;;;;;;;;;;;;17.16;46.61;100365.22;4997629;28;1526;-49
2023/03/05 05:31:15;;;;;;;;;;;;;;;16.59;47.38;100363.66;4997659;28;1052;-51
2023/03/05 05:33:40;;;;;;;;;;;;;;;16.23;47.51;100365.78;4996873;28;1107;-49
2023/03/05 05:36:07;;;;;;;;;;;;;;;17.57;46.07;100371.16;4997634;28;1056;-51
2023/03/05 05:38:32;;;;;;;;;;;;;;;16.49;47.67;100374.69;5012818;28;1104;-53
2023/03/05 05:41:02;;;;;;;;;;;;;;;16.28;46.83;100373.97;4998426;28;1056;-56
2023/03/05 05:43:27;;;;;;;;;;;;;;;16.05;46.42;100369.97;4997477;28;1898;-53
2023/03/05 05:45:53;;;;;;;;;;;;;;;15.91;46.39;100370.53;4997995;28;1113;-53
2023/03/05 05:48:19;;;;;;;;;;;;;;;16.67;47.04;100369.66;4997198;28;1072;-49
2023/03/05 05:50:44;;;;;;;;;;;;;;;16.12;46.92;100372.38;4997775;28;1183;-48
2023/03/05 05:53:10;;;;;;;;;;;;;;;16.14;46.93;100379.22;4997657;28;1068;-51
2023/03/05 05:55:38;;;;;;;;;;;;;;;16.40;47.50;100382.69;4997704;28;1188;-51
2023/03/05 05:58:04;;;;;;;;;;;;;;;16.04;46.95;100382.03;4997330;28;1040;-51
2023/03/05 06:00:29;;;;;;;;;;;;;;;16.93;46.50;100387.63;4997156;28;1137;-49
2023/03/05 06:02:55;;;;;;;;;;;;;;;16.10;47.21;100389.13;4997337;28;1374;-49
2023/03/05 06:05:20;;;;;;;;;;;;;;;17.57;45.58;100375.81;4997614;28;1906;-51
2023/03/05 06:07:46;;;;;;;;;;;;;;;17.39;46.16;100389.19;4996931;28;1196;-52
2023/03/05 06:10:12;;;;;;;;;;;;;;;16.52;47.13;100384.28;4997493;28;1211;-48
2023/03/05 06:12:37;;;;;;;;;;;;;;;17.65;45.88;100394.44;4997245;28;1057;-51
2023/03/05 06:15:03;;;;;;;;;;;;;;;15.79;49.73;100391.13;4997547;28;1120;-51
2023/03/05 06:17:28;;;;;;;;;;;;;;;16.37;48.50;100396.97;4997731;28;1100;-48
2023/03/05 06:19:54;;;;;;;;;;;;;;;16.19;48.84;100392.13;4997381;28;1424;-48
2023/03/05 06:22:20;;;;;;;;;;;;;;;16.00;49.38;100400.94;4997414;28;1048;-45
2023/03/05 06:24:45;;;;;;;;;;;;;;;15.88;49.54;100393.03;4996791;28;1906;-47
2023/03/05 06:27:11;;;;;;;;;;;;;;;15.73;49.80;100395.78;4997165;28;1200;-47
2023/03/05 06:29:36;;;;;;;;;;;;;;;15.58;49.99;100393.88;4996979;28;1052;-51
2023/03/05 06:32:03;;;;;;;;;;;;;;;15.50;49.92;100402.66;4997129;28;1140;-50
2023/03/05 06:34:28;;;;;;;;;;;;;;;15.38;50.33;100395.53;4997554;28;1076;-48
2023/03/05 06:36:54;;;;;;;;;;;;;;;15.25;50.38;100395.25;4996870;28;1084;-50
2023/03/05 06:39:19;;;;;;;;;;;;;;;15.14;50.72;100394.47;4996158;28;1121;-51
2023/03/05 06:41:45;;;;;;;;;;;;;;;15.96;48.92;100397.13;4997167;28;1053;-49
2023/03/05 06:44:10;;;;;;;;;;;;;;;17.03;45.93;100392.22;4996519;28;1961;-47
2023/03/05 06:46:36;;;;;;;;;;;;;;;16.07;48.48;100389.69;4996906;28;1025;-50
2023/03/05 06:49:02;;;;;;;;;;;;;;;15.66;49.22;100390.59;4996865;28;1121;-49
2023/03/05 06:51:29;;;;;;;;;;;;;;;15.43;49.60;100399.38;4996876;28;1040;-51
2023/03/05 06:53:54;;;;;;;;;;;;;;;16.07;48.62;100395.16;4996320;28;1192;-48
2023/03/05 06:56:20;;;;;;;;;;;;;;;17.23;45.17;100399.47;4996616;28;1115;-52
2023/03/05 06:58:46;;;;;;;;;;;;;;;16.20;47.78;100401.97;4996891;28;1170;-51
2023/03/05 07:01:12;;;;;;;;;;;;;;;15.76;49.10;100391.66;4996655;28;1164;-52
2023/03/05 07:03:38;;;;;;;;;;;;;;;15.55;49.59;100394.44;4997206;28;1910;-53
2023/03/05 07:06:04;;;;;;;;;;;;;;;15.40;49.83;100393.38;4996646;28;1203;-54
2023/03/05 07:08:30;;;;;;;;;;;;;;;16.12;48.28;100397.06;4996821;28;1204;-51
2023/03/05 07:10:55;;;;;;;;;;;;;;;17.11;45.47;100396.31;4997122;28;1037;-55
2023/03/05 07:13:21;;;;;;;;;;;;;;;16.11;48.01;100396.25;4996476;28;1181;-53
2023/03/05 07:15:46;;;;;;;;;;;;;;;15.76;49.00;100386.19;4996835;28;1133;-53
2023/03/05 07:18:12;;;;;;;;;;;;;;;15.53;49.28;100381.00;4996944;28;1152;-48
2023/03/05 07:20:37;;;;;;;;;;;;;;;15.40;49.63;100378.81;4996629;28;1129;-54
2023/03/05 07:23:03;;;;;;;;;;;;;;;17.02;45.91;100370.53;4996539;28;1182;-47
2023/03/05 07:25:29;;;;;;;;;;;;;;;16.76;46.43;100368.78;4996159;28;1910;-54
2023/03/05 07:27:54;;;;;;;;;;;;;;;16.05;48.17;100359.81;4996476;28;1116;-53
2023/03/05 07:30:20;;;;;;;;;;;;;;;15.73;49.04;100358.22;4996549;28;1119;-53
2023/03/05 07:32:45;;;;;;;;;;;;;;;15.53;49.25;100366.50;4996577;28;1215;-54
2023/03/05 07:35:11;;;;;;;;;;;;;;;15.40;49.74;100363.22;4996453;28;1195;-52
2023/03/05 07:37:37;;;;;;;;;;;;;;;16.76;46.56;100357.78;4996257;28;854;-52
2023/03/05 07:40:03;;;;;;;;;;;;;;;16.91;45.95;100358.81;4996530;28;1180;-48
2023/03/05 07:42:29;;;;;;;;;;;;;;;16.07;47.78;100348.53;4996585;28;1072;-49
2023/03/05 07:45:07;;;;;;;;;;;;;;;15.71;48.90;100348.63;5011438;28;1930;-46
2023/03/05 07:47:33;;;;;;;;;;;;;;;15.53;49.17;100347.31;4996906;28;1056;-48
2023/03/05 07:49:58;;;;;;;;;;;;;;;15.38;49.65;100345.41;4996537;28;1100;-50
2023/03/05 07:52:24;;;;;;;;;;;;;;;16.85;46.19;100351.69;4996006;28;1157;-47
2023/03/05 07:54:49;;;;;;;;;;;;;;;16.93;45.72;100348.38;4996252;28;1076;-48
2023/03/05 07:57:15;;;;;;;;;;;;;;;16.03;47.87;100345.56;4998520;28;1075;-49
2023/03/05 07:59:42;;;;;;;;;;;;;;;15.72;48.96;100342.88;5000038;28;1057;-51
2023/03/05 08:02:09;;;;;;;;;;;;;;;15.50;49.27;100334.16;4999690;28;909;-51
2023/03/05 08:04:35;;;;;;;;;;;;;;;15.38;49.57;100343.47;5014294;28;1965;-51
2023/03/05 08:07:00;;;;;;;;;;;;;;;16.38;47.24;100346.50;4999661;28;1053;-49
2023/03/05 08:09:26;;;;;;;;;;;;;;;17.20;45.13;100350.59;4999765;28;1164;-48
2023/03/05 08:11:52;;;;;;;;;;;;;;;16.15;47.51;100338.94;4999883;28;1056;-51
2023/03/05 08:14:17;;;;;;;;;;;;;;;15.83;48.41;100342.88;4999527;28;1040;-49
2023/03/05 08:16:43;;;;;;;;;;;;;;;15.60;48.97;100336.88;4999849;28;1164;-50
2023/03/05 08:19:08;;;;;;;;;;;;;;;15.37;49.53;100344.56;4999445;28;1095;-48
2023/03/05 08:21:34;;;;;;;;;;;;;;;16.20;47.69;100342.47;5014782;28;1043;-49
2023/03/05 08:24:00;;;;;;;;;;;;;;;17.06;45.48;100350.44;4999241;28;1985;-51
2023/03/05 08:26:27;;;;;;;;;;;;;;;16.06;47.62;100344.16;4999210;28;883;-49
2023/03/05 08:28:53;;;;;;;;;;;;;;;15.68;48.91;100341.81;4999420;28;1128;-49
2023/03/05 08:31:20;;;;;;;;;;;;;;;15.53;49.07;100337.16;4999839;28;993;-48
2023/03/05 08:33:45;;;;;;;;;;;;;;;15.38;49.57;100335.25;4999256;28;1209;-50
2023/03/05 08:36:12;;;;;;;;;;;;;;;16.46;46.89;100341.50;4998792;28;1400;-50
2023/03/05 08:38:37;;;;;;;;;;;;;;;17.00;45.38;100326.88;4999369;28;1076;-51
2023/03/05 08:41:03;;;;;;;;;;;;;;;16.07;47.59;100323.88;4999538;28;1223;-48
2023/03/05 08:43:30;;;;;;;;;;;;;;;15.74;48.46;100318.75;5014230;28;1910;-50
2023/03/05 08:45:55;;;;;;;;;;;;;;;15.53;49.20;100309.75;4999479;28;1009;-49
2023/03/05 08:48:21;;;;;;;;;;;;;;;15.35;49.64;100302.94;4998503;28;1061;-47
2023/03/05 08:50:47;;;;;;;;;;;;;;;16.20;47.46;100311.44;4998941;28;861;-48
2023/03/05 08:53:13;;;;;;;;;;;;;;;16.85;45.92;100316.00;4998867;28;1061;-48
2023/03/05 08:55:39;;;;;;;;;;;;;;;15.89;48.07;100311.59;4998940;28;1025;-49
2023/03/05 08:58:04;;;;;;;;;;;;;;;15.59;48.82;100316.06;4999080;28;1095;-46
2023/03/05 09:00:30;;;;;;;;;;;;;;;15.44;49.23;100310.59;4998912;28;1040;-50
2023/03/05 09:02:55;;;;;;;;;;;;;;;15.26;49.84;100303.78;4998540;28;1192;-51
2023/03/05 09:05:21;;;;;;;;;;;;;;;16.21;47.38;100302.94;4998516;28;1918;-51
2023/03/05 09:07:47;;;;;;;;;;;;;;;17.34;44.47;100304.03;4998198;28;1133;-50
2023/03/05 09:10:13;;;;;;;;;;;;;;;16.25;47.07;100300.47;4998811;28;1033;-51
2023/03/05 09:12:39;;;;;;;;;;;;;;;15.86;48.36;100291.03;4998222;28;1160;-52
2023/03/05 09:15:07;;;;;;;;;;;;;;;15.57;48.69;100290.84;4998171;28;885;-49
2023/03/05 09:17:33;;;;;;;;;;;;;;;15.45;49.44;100290.34;4998516;28;1167;-51
2023/03/05 09:19:59;;;;;;;;;;;;;;;15.33;49.56;100283.25;4998608;28;1064;-47
2023/03/05 09:22:25;;;;;;;;;;;;;;;16.67;46.56;100290.84;4998389;28;1149;-50
2023/03/05 09:24:50;;;;;;;;;;;;;;;17.10;45.16;100277.34;4998078;28;1989;-49
2023/03/05 09:27:16;;;;;;;;;;;;;;;16.11;47.61;100274.75;4997791;28;1115;-52
2023/03/05 09:29:41;;;;;;;;;;;;;;;15.74;48.40;100277.63;4998313;28;1087;-49
2023/03/05 09:32:07;;;;;;;;;;;;;;;15.59;48.77;100279.63;4997853;28;1044;-48
2023/03/05 09:34:33;;;;;;;;;;;;;;;15.46;49.15;100275.53;4997959;28;1080;-46
2023/03/05 09:36:59;;;;;;;;;;;;;;;15.26;49.49;100271.72;4997813;28;1143;-48
2023/03/05 09:39:25;;;;;;;;;;;;;;;16.77;46.28;100276.22;4997875;28;966;-51
2023/03/05 09:42:09;;;;;;;;;;;;;;;17.20;44.84;100272.88;4998001;28;1223;-51
2023/03/05 09:44:37;;;;;;;;;;;;;;;16.10;47.76;100270.38;4997787;28;1926;-49
2023/03/05 09:47:25;;;;;;;;;;;;;;;15.77;48.37;100269.94;5012777;28;1056;-51
2023/03/05 09:50:00;;;;;;;;;;;;;;;15.53;48.89;100262.38;5012787;28;1111;-49
2023/03/05 09:52:33;;;;;;;;;;;;;;;15.43;49.44;100255.00;5013371;28;1171;-52
2023/03/05 09:54:59;;;;;;;;;;;;;;;16.29;47.31;100246.66;5012866;28;1167;-48
2023/03/05 09:57:27;;;;;;;;;;;;;;;17.27;44.61;100246.66;5013161;28;1048;-50
2023/03/05 09:59:55;;;;;;;;;;;;;;;16.24;47.32;100246.69;5012908;28;1156;-49
2023/03/05 10:02:27;;;;;;;;;;;;;;;15.79;48.29;100243.06;5012950;28;1118;-52
2023/03/05 10:04:56;;;;;;;;;;;;;;;15.58;48.93;100234.94;5012747;28;1906;-49
2023/03/05 10:07:31;;;;;;;;;;;;;;;15.45;49.31;100236.34;4997459;28;1345;-47
2023/03/05 10:09:58;;;;;;;;;;;;;;;15.52;49.19;100236.88;5012709;28;1028;-44
2023/03/05 10:12:41;;;;;;;;;;;;;;;17.08;45.19;100229.28;5012871;28;1143;-46
2023/03/05 10:15:11;;;;;;;;;;;;;;;16.38;46.71;100227.66;4997421;28;823;-45
2023/03/05 10:17:36;;;;;;;;;;;;;;;15.86;48.34;100218.94;4997230;28;1231;-47
2023/03/05 10:20:13;;;;;;;;;;;;;;;15.64;48.81;100222.88;4996176;28;1189;-43
2023/03/05 10:22:57;;;;;;;;;;;;;;;15.40;49.42;100215.28;5012649;28;1194;-43
2023/03/05 10:25:42;;;;;;;;;;;;;;;16.14;47.58;100206.44;4997279;28;1914;-44
2023/03/05 10:28:20;;;;;;;;;;;;;;;17.02;45.37;100212.03;4996667;28;1101;-44
2023/03/05 10:30:53;;;;;;;;;;;;;;;16.07;47.42;100215.00;4997036;28;1160;-42
2023/03/05 10:33:19;;;;;;;;;;;;;;;15.71;48.44;100200.59;4997122;28;1047;-42
2023/03/05 10:35:59;;;;;;;;;;;;;;;15.52;49.04;100197.69;4996278;28;1215;-44
2023/03/05 10:38:43;;;;;;;;;;;;;;;15.36;49.50;100188.69;4996720;28;1160;-44
2023/03/05 10:41:27;;;;;;;;;;;;;;;16.09;47.59;100176.31;4985156;28;1200;-42
2023/03/05 10:43:55;;;;;;;;;;;;;;;17.43;44.29;100175.03;4996496;28;2004;-42
2023/03/05 10:46:21;;;;;;;;;;;;;;;16.33;46.77;100173.66;4996815;28;1188;-46
2023/03/05 10:48:52;;;;;;;;;;;;;;;15.88;47.84;100173.69;4996771;28;1060;-42
2023/03/05 10:51:32;;;;;;;;;;;;;;;15.67;48.50;100178.44;5011326;28;1122;-43
2023/03/05 10:53:58;;;;;;;;;;;;;;;15.44;49.15;100170.88;4996975;28;1136;-43
2023/03/05 10:56:24;;;;;;;;;;;;;;;15.87;48.13;100168.50;4996592;28;1124;-42
2023/03/05 10:58:51;;;;;;;;;;;;;;;17.29;44.73;100166.69;4996732;28;1466;-46
2023/03/05 11:01:17;;;;;;;;;;;;;;;16.44;46.51;100179.88;4996667;28;1549;-45
2023/03/05 11:04:02;;;;;;;;;;;;;;;15.94;47.75;100166.25;4996585;28;1902;-46
2023/03/05 11:06:38;;;;;;;;;;;;;;;15.65;48.49;100164.19;4996274;28;1092;-46
2023/03/05 11:09:19;;;;;;;;;;;;;;;15.48;49.17;100161.00;5012095;28;1115;-41
2023/03/05 11:12:00;;;;;;;;;;;;;;;16.06;47.55;100158.50;4984955;28;1170;-47
2023/03/05 11:14:30;;;;;;;;;;;;;;;17.09;44.93;100145.78;4996476;28;1064;-47
2023/03/05 11:16:55;;;;;;;;;;;;;;;16.10;47.22;100150.50;4996234;28;1123;-47
2023/03/05 11:19:28;;;;;;;;;;;;;;;15.74;48.13;100148.00;4996544;28;1048;-47
2023/03/05 11:22:09;;;;;;;;;;;;;;;15.57;48.79;100148.31;4996789;28;1203;-48
2023/03/05 11:24:35;;;;;;;;;;;;;;;15.50;49.02;100150.56;4996545;28;1903;-47
2023/03/05 11:27:01;;;;;;;;;;;;;;;17.11;45.18;100146.31;4995779;28;1036;-45
2023/03/05 11:29:30;;;;;;;;;;;;;;;16.58;46.12;100138.88;4996366;28;1005;-46
2023/03/05 11:31:55;;;;;;;;;;;;;;;15.94;47.79;100135.28;4997803;28;1147;-44
2023/03/05 11:34:29;;;;;;;;;;;;;;;15.69;48.53;100137.84;5000061;28;1183;-43
2023/03/05 11:36:55;;;;;;;;;;;;;;;15.54;48.98;100133.28;5000142;28;1119;-46
2023/03/05 11:39:21;;;;;;;;;;;;;;;17.13;44.99;100124.03;5000050;28;1168;-43
2023/03/05 11:41:46;;;;;;;;;;;;;;;16.68;45.84;100136.03;5000085;28;1188;-48
2023/03/05 11:44:18;;;;;;;;;;;;;;;16.04;47.60;100122.28;4999802;28;1899;-44
2023/03/05 11:46:46;;;;;;;;;;;;;;;15.76;48.34;100120.28;5015680;28;1027;-46
2023/03/05 11:49:13;;;;;;;;;;;;;;;15.57;48.78;100119.03;4999915;28;1084;-46
2023/03/05 11:51:43;;;;;;;;;;;;;;;15.45;48.99;100126.75;4999670;28;1044;-46
2023/03/05 11:54:11;;;;;;;;;;;;;;;17.07;45.23;100121.34;4999833;28;1215;-45
2023/03/05 11:56:38;;;;;;;;;;;;;;;16.53;46.43;100119.69;5014665;28;1032;-44
2023/03/05 11:59:04;;;;;;;;;;;;;;;15.95;47.88;100117.69;4999800;28;1117;-46
2023/03/05 12:01:31;;;;;;;;;;;;;;;15.65;48.64;100117.59;5014977;28;1060;-44
2023/03/05 12:03:56;;;;;;;;;;;;;;;15.49;48.83;100116.06;4999363;28;1977;-44
2023/03/05 12:06:25;;;;;;;;;;;;;;;16.24;47.28;100104.88;4999863;28;1072;-46
2023/03/05 12:08:52;;;;;;;;;;;;;;;17.10;44.77;100097.97;4999281;28;1135;-48
2023/03/05 12:11:19;;;;;;;;;;;;;;;16.15;47.24;100100.28;4999259;28;937;-46
2023/03/05 12:13:46;;;;;;;;;;;;;;;15.71;48.46;100105.50;5014137;28;1496;-45
2023/03/05 12:16:18;;;;;;;;;;;;;;;15.59;48.50;100105.03;4999671;28;830;-46
2023/03/05 12:18:47;;;;;;;;;;;;;;;15.88;48.00;100112.56;4999273;28;1052;-45
2023/03/05 12:21:20;;;;;;;;;;;;;;;16.95;45.36;100096.22;5015134;28;1202;-47
2023/03/05 12:23:50;;;;;;;;;;;;;;;15.98;47.46;100114.41;5015336;28;1968;-47
2023/03/05 12:26:16;;;;;;;;;;;;;;;15.71;48.20;100107.41;4998980;28;1148;-45
2023/03/05 12:28:42;;;;;;;;;;;;;;;15.42;48.76;100094.44;4999351;28;891;-45
2023/03/05 12:31:07;;;;;;;;;;;;;;;15.34;49.05;100112.28;4999249;28;1041;-47
2023/03/05 12:33:34;;;;;;;;;;;;;;;16.79;45.93;100097.47;4999513;28;1161;-44
2023/03/05 12:36:18;;;;;;;;;;;;;;;17.02;44.90;100102.19;4999411;28;1253;-50
2023/03/05 12:38:53;;;;;;;;;;;;;;;16.02;47.29;100099.84;4999348;28;1113;-43
2023/03/05 12:41:21;;;;;;;;;;;;;;;15.66;48.22;100097.31;4999063;28;907;-45
2023/03/05 12:44:05;;;;;;;;;;;;;;;15.49;48.64;100091.41;4998631;28;1906;-48
2023/03/05 12:46:34;;;;;;;;;;;;;;;15.39;49.00;100095.81;4987008;28;1088;-45
2023/03/05 12:49:21;;;;;;;;;;;;;;;16.37;46.95;100081.44;4998790;28;1064;-43